EDT,Max TemperatureF,Mean TemperatureF,Min TemperatureF,Max Dew PointF,MeanDew PointF,Min DewpointF,Max Humidity, Mean Humidity, Min Humidity, Max Sea Level PressureIn, Mean Sea Level PressureIn, Min Sea Level PressureIn, Max VisibilityMiles, Mean VisibilityMiles, Min VisibilityMiles, Max Wind SpeedMPH, Mean Wind SpeedMPH, Max Gust SpeedMPH,PrecipitationIn, CloudCover, Events, WindDirDegrees
2011-3-1,42,34,25,30,14,3,78,46,19,30.28,30.12,29.76,10,10,10,13,7,25,0.00,1,,324
2011-3-2,46,34,21,32,22,2,82,57,25,30.26,30.08,29.91,10,10,10,28,11,40,0.00,2,,240
2011-3-3,30,22,15,11,-2,-9,81,39,18,30.70,30.56,30.31,10,10,10,14,8,24,0.00,0,,327
2011-3-4,37,26,14,29,14,-2,80,58,22,30.79,30.72,30.63,10,10,10,14,4,,0.00,1,,165
2011-3-5,55,45,35,44,38,30,86,77,63,30.60,30.44,30.27,10,10,10,21,13,30,0.00,7,Rain,168
2011-3-6,62,56,50,54,49,42,94,79,56,30.25,30.00,29.77,10,10,4,25,17,34,0.04,8,Rain,177
2011-3-7,53,42,28,52,38,17,94,78,46,30.25,29.76,29.56,10,7,2,30,20,41,0.37,6,Rain,199
2011-3-8,46,36,26,22,18,8,81,56,25,30.63,30.50,30.28,10,10,10,13,5,16,0.00,0,,22
2011-3-9,42,34,26,29,25,22,84,67,49,30.70,30.64,30.60,10,10,10,17,6,25,0.00,4,,64
2011-3-10,46,42,37,42,36,28,90,77,66,30.59,30.36,30.10,10,10,5,21,12,30,0.00,8,Rain,102
2011-3-11,53,48,41,52,46,39,96,91,86,30.10,29.85,29.76,10,4,0,20,13,30,0.54,7,Fog-Rain,171
2011-3-12,50,44,37,38,34,28,93,75,46,29.86,29.79,29.75,10,6,0,22,7,30,0.00,4,Fog,229
2011-3-13,53,44,35,39,31,26,93,63,35,30.13,29.93,29.81,10,9,4,24,6,32,0.00,3,,271
2011-3-14,42,36,30,32,29,25,82,70,55,30.45,30.29,30.13,10,10,5,10,5,,0.01,7,Rain-Snow,18
2011-3-15,64,44,27,29,24,19,79,62,21,30.53,30.48,30.44,10,10,10,10,3,,0.00,0,,157
2011-3-16,51,44,37,48,41,34,95,89,86,30.41,30.15,29.93,10,7,2,15,5,24,0.37,7,Rain,138
2011-3-17,62,50,39,40,37,34,93,72,34,30.15,30.06,30.01,10,7,1,15,5,,0.00,3,,249
2011-3-18,72,58,44,43,33,18,76,48,14,30.01,29.83,29.70,10,10,10,24,12,34,0.00,1,,248
2011-3-19,55,42,28,34,29,25,88,58,31,30.46,30.15,29.91,10,10,10,14,6,23,0.00,5,,355
2011-3-20,46,36,27,25,21,16,88,56,32,30.62,30.57,30.48,10,10,7,12,4,,0.00,1,,121
2011-3-21,42,38,33,40,33,24,93,81,55,30.53,30.12,29.80,10,5,0,16,7,28,0.18,7,Fog-Rain-Snow,162
2011-3-22,46,40,35,36,30,23,93,69,47,29.96,29.84,29.76,10,10,10,13,8,21,0.00,6,,331
2011-3-23,44,38,32,31,26,19,87,68,38,29.94,29.80,29.66,10,8,2,10,2,,0.02,6,Snow,339
2011-3-24,43,35,28,30,28,24,89,76,57,29.83,29.63,29.56,10,7,1,15,7,25,0.09,8,Snow,11
2011-3-25,46,36,27,23,17,8,85,49,26,29.91,29.85,29.79,10,10,10,21,7,22,0.00,3,,281
2011-3-26,42,33,25,10,7,2,49,34,20,29.92,29.88,29.83,10,10,10,16,10,26,0.00,0,,296
2011-3-27,48,38,28,11,5,-2,47,31,13,29.92,29.83,29.72,10,10,10,17,11,26,0.00,0,,291
2011-3-28,48,38,28,11,8,5,41,30,21,29.90,29.83,29.76,10,10,10,20,13,26,0.00,1,,288
2011-3-29,52,40,30,18,15,10,52,38,25,30.06,29.97,29.91,10,10,10,15,7,25,0.00,2,,295
2011-3-30,55,42,30,32,23,18,73,50,25,30.15,30.06,29.99,10,10,10,17,6,17,0.00,0,,264
2011-3-31,48,40,33,35,32,24,93,79,41,30.01,29.85,29.71,10,6,0,14,5,18,0.63,8,Fog-Rain-Snow,49